sensor_id;sensor_type;location;lat;lon;timestamp;P1;durP1;ratioP1;P2;durP2;ratioP2
24277;SDS011;12394;42.692;23.314;2023-06-10T00:00:10;10.03;;;9.03;;
24277;SDS011;12394;42.692;23.314;2023-06-10T00:02:38;16.80;;;9.03;;
24277;SDS011;12394;42.692;23.314;2023-06-10T00:05:04;10.97;;;7.47;;
24277;SDS011;12394;42.692;23.314;2023-06-10T00:07:29;15.23;;;11.70;;
24277;SDS011;12394;42.692;23.314;2023-06-10T00:09:55;11.07;;;8.77;;
24277;SDS011;12394;42.692;23.314;2023-06-10T00:12:20;9.77;;;7.97;;
24277;SDS011;12394;42.692;23.314;2023-06-10T00:14:46;9.70;;;6.97;;
24277;SDS011;12394;42.692;23.314;2023-06-10T00:17:11;13.13;;;8.43;;
24277;SDS011;12394;42.692;23.314;2023-06-10T00:19:37;10.83;;;6.23;;
24277;SDS011;12394;42.692;23.314;2023-06-10T00:22:06;9.10;;;6.53;;
24277;SDS011;12394;42.692;23.314;2023-06-10T00:24:32;12.40;;;7.10;;
24277;SDS011;12394;42.692;23.314;2023-06-10T00:26:57;7.77;;;6.60;;
24277;SDS011;12394;42.692;23.314;2023-06-10T00:29:23;9.50;;;6.10;;
24277;SDS011;12394;42.692;23.314;2023-06-10T00:31:48;8.73;;;6.77;;
24277;SDS011;12394;42.692;23.314;2023-06-10T00:34:14;9.80;;;6.90;;
24277;SDS011;12394;42.692;23.314;2023-06-10T00:36:39;9.93;;;7.13;;
24277;SDS011;12394;42.692;23.314;2023-06-10T00:39:05;9.73;;;6.97;;
24277;SDS011;12394;42.692;23.314;2023-06-10T00:41:30;7.97;;;6.67;;
24277;SDS011;12394;42.692;23.314;2023-06-10T00:43:56;11.10;;;6.63;;
24277;SDS011;12394;42.692;23.314;2023-06-10T00:46:22;8.77;;;6.93;;
24277;SDS011;12394;42.692;23.314;2023-06-10T00:48:50;12.17;;;7.43;;
24277;SDS011;12394;42.692;23.314;2023-06-10T00:51:16;11.07;;;7.00;;
24277;SDS011;12394;42.692;23.314;2023-06-10T00:53:43;8.20;;;7.30;;
24277;SDS011;12394;42.692;23.314;2023-06-10T00:56:08;8.30;;;6.60;;
24277;SDS011;12394;42.692;23.314;2023-06-10T00:58:35;11.27;;;7.27;;
24277;SDS011;12394;42.692;23.314;2023-06-10T01:01:01;7.80;;;7.07;;
24277;SDS011;12394;42.692;23.314;2023-06-10T01:03:26;11.63;;;7.70;;
24277;SDS011;12394;42.692;23.314;2023-06-10T01:08:49;13.57;;;9.80;;
24277;SDS011;12394;42.692;23.314;2023-06-10T01:14:42;13.00;;;9.43;;
24277;SDS011;12394;42.692;23.314;2023-06-10T01:17:10;10.37;;;9.23;;
24277;SDS011;12394;42.692;23.314;2023-06-10T01:19:35;12.43;;;8.97;;
24277;SDS011;12394;42.692;23.314;2023-06-10T01:22:01;12.10;;;10.13;;
24277;SDS011;12394;42.692;23.314;2023-06-10T01:24:27;13.60;;;9.93;;
24277;SDS011;12394;42.692;23.314;2023-06-10T01:26:53;15.80;;;11.63;;
24277;SDS011;12394;42.692;23.314;2023-06-10T01:32:05;45.90;;;32.40;;
24277;SDS011;12394;42.692;23.314;2023-06-10T01:34:37;32.40;;;25.70;;
24277;SDS011;12394;42.692;23.314;2023-06-10T01:37:07;27.97;;;22.13;;
24277;SDS011;12394;42.692;23.314;2023-06-10T01:39:35;26.33;;;20.77;;
24277;SDS011;12394;42.692;23.314;2023-06-10T01:42:01;20.47;;;17.60;;
24277;SDS011;12394;42.692;23.314;2023-06-10T01:44:28;20.40;;;16.53;;
24277;SDS011;12394;42.692;23.314;2023-06-10T01:46:53;24.00;;;18.00;;
24277;SDS011;12394;42.692;23.314;2023-06-10T01:49:18;17.70;;;14.00;;
24277;SDS011;12394;42.692;23.314;2023-06-10T01:51:44;18.30;;;12.30;;
24277;SDS011;12394;42.692;23.314;2023-06-10T01:54:09;18.67;;;12.30;;
24277;SDS011;12394;42.692;23.314;2023-06-10T01:56:35;13.73;;;10.83;;
24277;SDS011;12394;42.692;23.314;2023-06-10T01:59:00;15.37;;;9.47;;
24277;SDS011;12394;42.692;23.314;2023-06-10T02:01:26;10.77;;;9.20;;
24277;SDS011;12394;42.692;23.314;2023-06-10T02:03:51;11.60;;;8.50;;
24277;SDS011;12394;42.692;23.314;2023-06-10T02:06:16;12.57;;;8.20;;
24277;SDS011;12394;42.692;23.314;2023-06-10T02:08:42;14.77;;;7.97;;
24277;SDS011;12394;42.692;23.314;2023-06-10T02:11:07;10.37;;;7.70;;
24277;SDS011;12394;42.692;23.314;2023-06-10T02:13:33;11.37;;;7.77;;
24277;SDS011;12394;42.692;23.314;2023-06-10T02:15:58;11.87;;;8.57;;
24277;SDS011;12394;42.692;23.314;2023-06-10T02:18:24;12.13;;;8.20;;
24277;SDS011;12394;42.692;23.314;2023-06-10T02:20:52;10.80;;;8.30;;
24277;SDS011;12394;42.692;23.314;2023-06-10T02:23:17;10.77;;;8.53;;
24277;SDS011;12394;42.692;23.314;2023-06-10T02:25:43;13.20;;;7.97;;
24277;SDS011;12394;42.692;23.314;2023-06-10T02:28:08;10.70;;;7.97;;
24277;SDS011;12394;42.692;23.314;2023-06-10T02:30:34;12.17;;;8.00;;
24277;SDS011;12394;42.692;23.314;2023-06-10T02:32:59;12.03;;;7.40;;
24277;SDS011;12394;42.692;23.314;2023-06-10T02:35:26;16.00;;;7.30;;
24277;SDS011;12394;42.692;23.314;2023-06-10T02:37:51;9.07;;;7.93;;
24277;SDS011;12394;42.692;23.314;2023-06-10T02:40:16;10.10;;;7.37;;
24277;SDS011;12394;42.692;23.314;2023-06-10T02:42:42;11.63;;;7.57;;
24277;SDS011;12394;42.692;23.314;2023-06-10T02:45:07;9.30;;;7.17;;
24277;SDS011;12394;42.692;23.314;2023-06-10T02:47:33;13.13;;;7.00;;
24277;SDS011;12394;42.692;23.314;2023-06-10T02:49:58;9.60;;;6.90;;
24277;SDS011;12394;42.692;23.314;2023-06-10T02:52:24;12.40;;;6.90;;
24277;SDS011;12394;42.692;23.314;2023-06-10T02:54:50;9.97;;;7.50;;
24277;SDS011;12394;42.692;23.314;2023-06-10T02:57:15;8.83;;;7.63;;
24277;SDS011;12394;42.692;23.314;2023-06-10T02:59:40;14.87;;;7.87;;
24277;SDS011;12394;42.692;23.314;2023-06-10T03:02:06;9.10;;;7.57;;
24277;SDS011;12394;42.692;23.314;2023-06-10T03:04:32;13.10;;;8.20;;
24277;SDS011;12394;42.692;23.314;2023-06-10T03:06:58;10.57;;;8.20;;
24277;SDS011;12394;42.692;23.314;2023-06-10T03:09:25;11.57;;;8.67;;
24277;SDS011;12394;42.692;23.314;2023-06-10T03:11:51;10.80;;;8.57;;
24277;SDS011;12394;42.692;23.314;2023-06-10T03:14:16;10.20;;;8.30;;
24277;SDS011;12394;42.692;23.314;2023-06-10T03:16:42;10.07;;;9.00;;
24277;SDS011;12394;42.692;23.314;2023-06-10T03:19:08;10.97;;;8.30;;
24277;SDS011;12394;42.692;23.314;2023-06-10T03:21:36;11.37;;;8.23;;
24277;SDS011;12394;42.692;23.314;2023-06-10T03:24:02;13.73;;;10.80;;
24277;SDS011;12394;42.692;23.314;2023-06-10T03:26:28;13.67;;;10.80;;
24277;SDS011;12394;42.692;23.314;2023-06-10T03:28:54;25.30;;;12.97;;
24277;SDS011;12394;42.692;23.314;2023-06-10T03:31:19;17.70;;;12.03;;
24277;SDS011;12394;42.692;23.314;2023-06-10T03:33:44;16.67;;;11.63;;
24277;SDS011;12394;42.692;23.314;2023-06-10T03:36:10;17.27;;;10.83;;
24277;SDS011;12394;42.692;23.314;2023-06-10T03:38:35;13.17;;;10.70;;
24277;SDS011;12394;42.692;23.314;2023-06-10T03:41:01;13.17;;;9.67;;
24277;SDS011;12394;42.692;23.314;2023-06-10T03:43:27;16.63;;;11.23;;
24277;SDS011;12394;42.692;23.314;2023-06-10T03:45:52;16.93;;;11.13;;
24277;SDS011;12394;42.692;23.314;2023-06-10T03:48:18;11.30;;;9.93;;
24277;SDS011;12394;42.692;23.314;2023-06-10T03:50:43;15.47;;;10.53;;
24277;SDS011;12394;42.692;23.314;2023-06-10T03:53:09;13.33;;;11.17;;
24277;SDS011;12394;42.692;23.314;2023-06-10T03:55:35;14.83;;;10.03;;
24277;SDS011;12394;42.692;23.314;2023-06-10T03:58:01;13.07;;;9.53;;
24277;SDS011;12394;42.692;23.314;2023-06-10T04:00:27;12.67;;;8.53;;
24277;SDS011;12394;42.692;23.314;2023-06-10T04:02:52;10.17;;;8.10;;
24277;SDS011;12394;42.692;23.314;2023-06-10T04:05:18;12.10;;;9.43;;
24277;SDS011;12394;42.692;23.314;2023-06-10T04:07:47;10.63;;;8.87;;
24277;SDS011;12394;42.692;23.314;2023-06-10T04:10:13;10.30;;;9.07;;
24277;SDS011;12394;42.692;23.314;2023-06-10T04:12:39;12.40;;;9.00;;
24277;SDS011;12394;42.692;23.314;2023-06-10T04:15:05;11.27;;;8.57;;
24277;SDS011;12394;42.692;23.314;2023-06-10T04:17:31;13.30;;;8.80;;
24277;SDS011;12394;42.692;23.314;2023-06-10T04:19:56;10.27;;;8.27;;
24277;SDS011;12394;42.692;23.314;2023-06-10T04:22:23;8.97;;;7.90;;
24277;SDS011;12394;42.692;23.314;2023-06-10T04:24:48;16.83;;;9.23;;
24277;SDS011;12394;42.692;23.314;2023-06-10T04:27:14;17.20;;;10.50;;
24277;SDS011;12394;42.692;23.314;2023-06-10T04:29:40;15.20;;;12.13;;
24277;SDS011;12394;42.692;23.314;2023-06-10T04:32:05;16.87;;;11.53;;
24277;SDS011;12394;42.692;23.314;2023-06-10T04:34:32;14.73;;;10.70;;
24277;SDS011;12394;42.692;23.314;2023-06-10T04:36:59;13.53;;;10.47;;
24277;SDS011;12394;42.692;23.314;2023-06-10T04:39:25;13.77;;;10.13;;
24277;SDS011;12394;42.692;23.314;2023-06-10T04:41:55;11.73;;;10.53;;
24277;SDS011;12394;42.692;23.314;2023-06-10T04:44:41;12.60;;;9.90;;
24277;SDS011;12394;42.692;23.314;2023-06-10T04:47:08;12.80;;;10.80;;
24277;SDS011;12394;42.692;23.314;2023-06-10T04:49:35;13.13;;;11.10;;
24277;SDS011;12394;42.692;23.314;2023-06-10T04:52:03;12.17;;;10.60;;
24277;SDS011;12394;42.692;23.314;2023-06-10T04:54:29;14.17;;;11.67;;
24277;SDS011;12394;42.692;23.314;2023-06-10T04:56:55;12.30;;;10.33;;
24277;SDS011;12394;42.692;23.314;2023-06-10T04:59:21;13.60;;;10.33;;
24277;SDS011;12394;42.692;23.314;2023-06-10T05:01:46;21.63;;;9.67;;
24277;SDS011;12394;42.692;23.314;2023-06-10T05:04:13;20.40;;;12.23;;
24277;SDS011;12394;42.692;23.314;2023-06-10T05:06:42;15.97;;;10.73;;
24277;SDS011;12394;42.692;23.314;2023-06-10T05:09:07;14.73;;;10.30;;
24277;SDS011;12394;42.692;23.314;2023-06-10T05:11:37;15.77;;;11.37;;
24277;SDS011;12394;42.692;23.314;2023-06-10T05:14:05;12.83;;;10.67;;
24277;SDS011;12394;42.692;23.314;2023-06-10T05:16:31;13.83;;;9.53;;
24277;SDS011;12394;42.692;23.314;2023-06-10T05:18:57;14.77;;;8.87;;
24277;SDS011;12394;42.692;23.314;2023-06-10T05:21:23;9.00;;;7.23;;
24277;SDS011;12394;42.692;23.314;2023-06-10T05:23:48;13.67;;;7.53;;
24277;SDS011;12394;42.692;23.314;2023-06-10T05:26:15;9.80;;;6.70;;
24277;SDS011;12394;42.692;23.314;2023-06-10T05:29:01;18.50;;;7.77;;
24277;SDS011;12394;42.692;23.314;2023-06-10T05:31:26;14.27;;;7.10;;
24277;SDS011;12394;42.692;23.314;2023-06-10T05:33:52;13.73;;;7.53;;
24277;SDS011;12394;42.692;23.314;2023-06-10T05:36:18;15.20;;;7.37;;
24277;SDS011;12394;42.692;23.314;2023-06-10T05:38:51;13.87;;;8.10;;
24277;SDS011;12394;42.692;23.314;2023-06-10T05:41:16;16.87;;;8.90;;
24277;SDS011;12394;42.692;23.314;2023-06-10T05:43:42;9.43;;;7.87;;
24277;SDS011;12394;42.692;23.314;2023-06-10T05:46:07;13.27;;;7.80;;
24277;SDS011;12394;42.692;23.314;2023-06-10T05:48:33;11.80;;;7.93;;
24277;SDS011;12394;42.692;23.314;2023-06-10T05:50:59;12.20;;;8.03;;
24277;SDS011;12394;42.692;23.314;2023-06-10T05:53:24;14.63;;;8.10;;
24277;SDS011;12394;42.692;23.314;2023-06-10T05:55:49;11.80;;;8.37;;
24277;SDS011;12394;42.692;23.314;2023-06-10T05:58:15;14.37;;;8.03;;
24277;SDS011;12394;42.692;23.314;2023-06-10T06:00:41;13.63;;;7.73;;
24277;SDS011;12394;42.692;23.314;2023-06-10T06:03:07;13.00;;;9.23;;
24277;SDS011;12394;42.692;23.314;2023-06-10T06:05:36;13.73;;;7.57;;
24277;SDS011;12394;42.692;23.314;2023-06-10T06:08:03;14.47;;;8.50;;
24277;SDS011;12394;42.692;23.314;2023-06-10T06:10:29;15.53;;;8.13;;
24277;SDS011;12394;42.692;23.314;2023-06-10T06:12:55;14.83;;;9.57;;
24277;SDS011;12394;42.692;23.314;2023-06-10T06:15:20;10.23;;;7.87;;
24277;SDS011;12394;42.692;23.314;2023-06-10T06:17:46;10.77;;;7.17;;
24277;SDS011;12394;42.692;23.314;2023-06-10T06:20:11;14.50;;;11.10;;
24277;SDS011;12394;42.692;23.314;2023-06-10T06:22:37;14.23;;;9.77;;
24277;SDS011;12394;42.692;23.314;2023-06-10T06:25:02;13.40;;;8.57;;
24277;SDS011;12394;42.692;23.314;2023-06-10T06:27:27;11.83;;;7.93;;
24277;SDS011;12394;42.692;23.314;2023-06-10T06:29:53;12.10;;;7.93;;
24277;SDS011;12394;42.692;23.314;2023-06-10T06:32:18;14.20;;;7.70;;
24277;SDS011;12394;42.692;23.314;2023-06-10T06:34:44;12.87;;;7.20;;
24277;SDS011;12394;42.692;23.314;2023-06-10T06:37:09;9.87;;;7.43;;
24277;SDS011;12394;42.692;23.314;2023-06-10T06:39:35;12.10;;;8.43;;
24277;SDS011;12394;42.692;23.314;2023-06-10T06:42:00;15.97;;;8.30;;
24277;SDS011;12394;42.692;23.314;2023-06-10T06:44:26;12.13;;;7.93;;
24277;SDS011;12394;42.692;23.314;2023-06-10T06:46:51;20.63;;;7.77;;
24277;SDS011;12394;42.692;23.314;2023-06-10T06:49:16;16.63;;;8.53;;
24277;SDS011;12394;42.692;23.314;2023-06-10T06:51:42;11.10;;;7.43;;
24277;SDS011;12394;42.692;23.314;2023-06-10T06:54:30;15.80;;;8.47;;
24277;SDS011;12394;42.692;23.314;2023-06-10T06:56:56;9.57;;;6.90;;
24277;SDS011;12394;42.692;23.314;2023-06-10T06:59:24;12.63;;;7.27;;
24277;SDS011;12394;42.692;23.314;2023-06-10T07:02:16;16.57;;;6.53;;
24277;SDS011;12394;42.692;23.314;2023-06-10T07:04:43;18.00;;;7.43;;
24277;SDS011;12394;42.692;23.314;2023-06-10T07:07:09;8.50;;;5.80;;
24277;SDS011;12394;42.692;23.314;2023-06-10T07:09:34;9.03;;;6.27;;
24277;SDS011;12394;42.692;23.314;2023-06-10T07:12:00;11.97;;;5.80;;
24277;SDS011;12394;42.692;23.314;2023-06-10T07:14:25;9.17;;;5.40;;
24277;SDS011;12394;42.692;23.314;2023-06-10T07:16:51;9.63;;;6.60;;
24277;SDS011;12394;42.692;23.314;2023-06-10T07:19:16;5.93;;;5.17;;
24277;SDS011;12394;42.692;23.314;2023-06-10T07:21:41;11.13;;;6.67;;
24277;SDS011;12394;42.692;23.314;2023-06-10T07:24:07;15.83;;;6.57;;
24277;SDS011;12394;42.692;23.314;2023-06-10T07:26:34;10.43;;;5.63;;
24277;SDS011;12394;42.692;23.314;2023-06-10T07:29:04;7.63;;;6.83;;
24277;SDS011;12394;42.692;23.314;2023-06-10T07:31:31;11.43;;;7.70;;
24277;SDS011;12394;42.692;23.314;2023-06-10T07:33:58;7.60;;;5.50;;
24277;SDS011;12394;42.692;23.314;2023-06-10T07:36:28;8.40;;;5.23;;
24277;SDS011;12394;42.692;23.314;2023-06-10T07:38:55;7.50;;;5.87;;
24277;SDS011;12394;42.692;23.314;2023-06-10T07:41:22;9.03;;;4.73;;
24277;SDS011;12394;42.692;23.314;2023-06-10T07:43:52;5.17;;;4.10;;
24277;SDS011;12394;42.692;23.314;2023-06-10T07:46:22;7.97;;;5.30;;
24277;SDS011;12394;42.692;23.314;2023-06-10T07:48:51;7.07;;;5.40;;
24277;SDS011;12394;42.692;23.314;2023-06-10T07:51:20;8.43;;;5.03;;
24277;SDS011;12394;42.692;23.314;2023-06-10T07:53:46;7.37;;;4.57;;
24277;SDS011;12394;42.692;23.314;2023-06-10T07:56:12;11.07;;;4.60;;
24277;SDS011;12394;42.692;23.314;2023-06-10T07:58:37;6.70;;;4.93;;
24277;SDS011;12394;42.692;23.314;2023-06-10T08:01:02;9.07;;;5.00;;
24277;SDS011;12394;42.692;23.314;2023-06-10T08:03:28;6.27;;;4.50;;
24277;SDS011;12394;42.692;23.314;2023-06-10T08:05:53;7.17;;;4.87;;
24277;SDS011;12394;42.692;23.314;2023-06-10T08:08:19;11.60;;;5.27;;
24277;SDS011;12394;42.692;23.314;2023-06-10T08:10:44;7.77;;;5.37;;
24277;SDS011;12394;42.692;23.314;2023-06-10T08:13:10;8.93;;;5.60;;
24277;SDS011;12394;42.692;23.314;2023-06-10T08:15:35;5.50;;;4.63;;
24277;SDS011;12394;42.692;23.314;2023-06-10T08:18:00;4.23;;;3.83;;
24277;SDS011;12394;42.692;23.314;2023-06-10T08:20:26;4.40;;;3.97;;
24277;SDS011;12394;42.692;23.314;2023-06-10T08:22:51;8.83;;;4.63;;
24277;SDS011;12394;42.692;23.314;2023-06-10T08:25:17;9.23;;;4.73;;
24277;SDS011;12394;42.692;23.314;2023-06-10T08:27:42;6.60;;;3.80;;
24277;SDS011;12394;42.692;23.314;2023-06-10T08:30:08;5.57;;;4.40;;
24277;SDS011;12394;42.692;23.314;2023-06-10T08:32:35;6.77;;;4.57;;
24277;SDS011;12394;42.692;23.314;2023-06-10T08:35:01;5.63;;;4.77;;
24277;SDS011;12394;42.692;23.314;2023-06-10T08:37:26;7.90;;;5.20;;
24277;SDS011;12394;42.692;23.314;2023-06-10T08:39:52;8.77;;;5.50;;
24277;SDS011;12394;42.692;23.314;2023-06-10T08:44:58;6.57;;;4.30;;
24277;SDS011;12394;42.692;23.314;2023-06-10T08:47:26;3.90;;;3.50;;
24277;SDS011;12394;42.692;23.314;2023-06-10T08:49:56;6.90;;;3.67;;
24277;SDS011;12394;42.692;23.314;2023-06-10T08:52:26;8.10;;;4.20;;
24277;SDS011;12394;42.692;23.314;2023-06-10T08:54:56;5.73;;;3.60;;
24277;SDS011;12394;42.692;23.314;2023-06-10T08:57:24;7.03;;;3.70;;
24277;SDS011;12394;42.692;23.314;2023-06-10T08:59:50;4.80;;;4.10;;
24277;SDS011;12394;42.692;23.314;2023-06-10T09:02:18;4.93;;;3.60;;
24277;SDS011;12394;42.692;23.314;2023-06-10T09:04:46;6.63;;;4.03;;
24277;SDS011;12394;42.692;23.314;2023-06-10T09:07:11;6.43;;;3.30;;
24277;SDS011;12394;42.692;23.314;2023-06-10T09:09:39;5.43;;;4.13;;
24277;SDS011;12394;42.692;23.314;2023-06-10T09:12:06;4.50;;;3.73;;
24277;SDS011;12394;42.692;23.314;2023-06-10T09:14:32;7.60;;;3.90;;
24277;SDS011;12394;42.692;23.314;2023-06-10T09:16:58;6.67;;;3.63;;
24277;SDS011;12394;42.692;23.314;2023-06-10T09:19:23;5.90;;;4.97;;
24277;SDS011;12394;42.692;23.314;2023-06-10T09:21:52;6.67;;;3.93;;
24277;SDS011;12394;42.692;23.314;2023-06-10T09:24:17;5.53;;;4.10;;
24277;SDS011;12394;42.692;23.314;2023-06-10T09:26:43;6.17;;;3.57;;
24277;SDS011;12394;42.692;23.314;2023-06-10T09:29:10;4.80;;;4.03;;
24277;SDS011;12394;42.692;23.314;2023-06-10T09:31:37;4.88;;;3.80;;
24277;SDS011;12394;42.692;23.314;2023-06-10T09:34:07;5.38;;;3.63;;
24277;SDS011;12394;42.692;23.314;2023-06-10T09:36:35;8.23;;;3.72;;
24277;SDS011;12394;42.692;23.314;2023-06-10T09:39:01;6.43;;;3.95;;
24277;SDS011;12394;42.692;23.314;2023-06-10T09:41:34;6.10;;;3.58;;
24277;SDS011;12394;42.692;23.314;2023-06-10T09:44:01;7.20;;;4.07;;
24277;SDS011;12394;42.692;23.314;2023-06-10T09:46:34;6.03;;;3.77;;
24277;SDS011;12394;42.692;23.314;2023-06-10T09:48:59;10.63;;;4.40;;
24277;SDS011;12394;42.692;23.314;2023-06-10T09:51:25;9.40;;;4.03;;
24277;SDS011;12394;42.692;23.314;2023-06-10T09:53:50;7.90;;;3.22;;
24277;SDS011;12394;42.692;23.314;2023-06-10T09:56:17;7.85;;;3.95;;
24277;SDS011;12394;42.692;23.314;2023-06-10T09:58:42;6.25;;;4.20;;
24277;SDS011;12394;42.692;23.314;2023-06-10T10:01:11;4.43;;;3.80;;
24277;SDS011;12394;42.692;23.314;2023-06-10T10:03:47;6.87;;;3.70;;
24277;SDS011;12394;42.692;23.314;2023-06-10T10:06:14;10.93;;;3.40;;
24277;SDS011;12394;42.692;23.314;2023-06-10T10:08:41;4.50;;;3.40;;
24277;SDS011;12394;42.692;23.314;2023-06-10T10:11:06;3.97;;;2.97;;
24277;SDS011;12394;42.692;23.314;2023-06-10T10:13:35;4.78;;;3.20;;
24277;SDS011;12394;42.692;23.314;2023-06-10T10:16:04;4.43;;;3.65;;
24277;SDS011;12394;42.692;23.314;2023-06-10T10:18:36;3.70;;;3.22;;
24277;SDS011;12394;42.692;23.314;2023-06-10T10:21:09;5.07;;;3.22;;
24277;SDS011;12394;42.692;23.314;2023-06-10T10:26:29;7.53;;;4.07;;
24277;SDS011;12394;42.692;23.314;2023-06-10T10:31:40;5.65;;;3.50;;
24277;SDS011;12394;42.692;23.314;2023-06-10T10:34:09;3.47;;;3.08;;
24277;SDS011;12394;42.692;23.314;2023-06-10T10:36:41;8.80;;;3.70;;
24277;SDS011;12394;42.692;23.314;2023-06-10T10:39:07;7.73;;;3.60;;
24277;SDS011;12394;42.692;23.314;2023-06-10T10:41:34;3.70;;;3.27;;
24277;SDS011;12394;42.692;23.314;2023-06-10T10:44:03;3.90;;;3.50;;
24277;SDS011;12394;42.692;23.314;2023-06-10T10:46:41;3.93;;;3.00;;
24277;SDS011;12394;42.692;23.314;2023-06-10T10:49:08;4.17;;;3.30;;
24277;SDS011;12394;42.692;23.314;2023-06-10T10:51:43;7.60;;;4.47;;
24277;SDS011;12394;42.692;23.314;2023-06-10T10:54:28;4.50;;;3.73;;
24277;SDS011;12394;42.692;23.314;2023-06-10T11:02:32;6.43;;;3.97;;
24277;SDS011;12394;42.692;23.314;2023-06-10T11:05:15;5.07;;;3.47;;
24277;SDS011;12394;42.692;23.314;2023-06-10T11:07:51;4.03;;;3.30;;
24277;SDS011;12394;42.692;23.314;2023-06-10T11:10:30;5.27;;;3.80;;
24277;SDS011;12394;42.692;23.314;2023-06-10T11:13:07;4.17;;;3.70;;
24277;SDS011;12394;42.692;23.314;2023-06-10T11:15:45;5.27;;;3.80;;
24277;SDS011;12394;42.692;23.314;2023-06-10T11:18:22;7.13;;;3.73;;
24277;SDS011;12394;42.692;23.314;2023-06-10T11:31:23;9.57;;;4.53;;
24277;SDS011;12394;42.692;23.314;2023-06-10T11:33:52;7.07;;;4.90;;
24277;SDS011;12394;42.692;23.314;2023-06-10T11:36:19;5.33;;;4.23;;
24277;SDS011;12394;42.692;23.314;2023-06-10T11:38:45;13.93;;;5.20;;
24277;SDS011;12394;42.692;23.314;2023-06-10T11:41:11;8.53;;;5.57;;
24277;SDS011;12394;42.692;23.314;2023-06-10T11:43:47;6.23;;;4.30;;
24277;SDS011;12394;42.692;23.314;2023-06-10T11:46:38;10.70;;;4.37;;
24277;SDS011;12394;42.692;23.314;2023-06-10T11:49:11;6.03;;;4.23;;
24277;SDS011;12394;42.692;23.314;2023-06-10T11:51:40;5.17;;;3.90;;
24277;SDS011;12394;42.692;23.314;2023-06-10T11:54:15;4.93;;;3.40;;
24277;SDS011;12394;42.692;23.314;2023-06-10T11:56:43;5.27;;;3.50;;
24277;SDS011;12394;42.692;23.314;2023-06-10T11:59:11;4.97;;;4.33;;
24277;SDS011;12394;42.692;23.314;2023-06-10T12:01:38;5.17;;;3.60;;
24277;SDS011;12394;42.692;23.314;2023-06-10T12:04:12;4.60;;;3.93;;
24277;SDS011;12394;42.692;23.314;2023-06-10T12:07:01;4.57;;;3.67;;
24277;SDS011;12394;42.692;23.314;2023-06-10T12:09:28;5.67;;;4.40;;
24277;SDS011;12394;42.692;23.314;2023-06-10T12:11:58;11.67;;;4.40;;
24277;SDS011;12394;42.692;23.314;2023-06-10T12:20:27;13.00;;;3.90;;
24277;SDS011;12394;42.692;23.314;2023-06-10T12:22:59;5.43;;;3.63;;
24277;SDS011;12394;42.692;23.314;2023-06-10T12:25:28;8.93;;;4.00;;
24277;SDS011;12394;42.692;23.314;2023-06-10T12:27:57;10.70;;;3.47;;
24277;SDS011;12394;42.692;23.314;2023-06-10T12:30:24;5.97;;;3.70;;
24277;SDS011;12394;42.692;23.314;2023-06-10T12:32:51;3.50;;;3.20;;
24277;SDS011;12394;42.692;23.314;2023-06-10T12:35:19;3.70;;;3.20;;
24277;SDS011;12394;42.692;23.314;2023-06-10T12:37:56;6.37;;;3.90;;
24277;SDS011;12394;42.692;23.314;2023-06-10T12:40:29;7.00;;;6.10;;
24277;SDS011;12394;42.692;23.314;2023-06-10T12:42:57;3.90;;;3.33;;
24277;SDS011;12394;42.692;23.314;2023-06-10T12:45:30;4.87;;;4.10;;
24277;SDS011;12394;42.692;23.314;2023-06-10T12:48:06;6.60;;;4.20;;
24277;SDS011;12394;42.692;23.314;2023-06-10T12:50:43;6.83;;;4.07;;
24277;SDS011;12394;42.692;23.314;2023-06-10T12:53:10;4.60;;;3.73;;
24277;SDS011;12394;42.692;23.314;2023-06-10T12:55:36;3.57;;;3.20;;
24277;SDS011;12394;42.692;23.314;2023-06-10T12:58:02;5.70;;;3.93;;
24277;SDS011;12394;42.692;23.314;2023-06-10T13:00:31;6.07;;;3.60;;
24277;SDS011;12394;42.692;23.314;2023-06-10T13:03:00;4.67;;;3.17;;
24277;SDS011;12394;42.692;23.314;2023-06-10T13:05:27;4.70;;;3.23;;
24277;SDS011;12394;42.692;23.314;2023-06-10T13:07:53;4.07;;;2.90;;
24277;SDS011;12394;42.692;23.314;2023-06-10T13:10:20;5.07;;;3.83;;
24277;SDS011;12394;42.692;23.314;2023-06-10T13:12:48;5.93;;;3.50;;
24277;SDS011;12394;42.692;23.314;2023-06-10T13:15:13;8.13;;;6.20;;
24277;SDS011;12394;42.692;23.314;2023-06-10T13:17:41;8.23;;;4.80;;
24277;SDS011;12394;42.692;23.314;2023-06-10T13:20:08;4.50;;;4.10;;
24277;SDS011;12394;42.692;23.314;2023-06-10T13:22:34;7.43;;;4.30;;
24277;SDS011;12394;42.692;23.314;2023-06-10T13:25:04;7.53;;;4.63;;
24277;SDS011;12394;42.692;23.314;2023-06-10T13:27:32;8.57;;;4.07;;
24277;SDS011;12394;42.692;23.314;2023-06-10T13:29:59;5.90;;;4.20;;
24277;SDS011;12394;42.692;23.314;2023-06-10T13:32:24;12.17;;;4.70;;
24277;SDS011;12394;42.692;23.314;2023-06-10T13:34:50;11.10;;;4.00;;
24277;SDS011;12394;42.692;23.314;2023-06-10T13:37:16;8.57;;;4.53;;
24277;SDS011;12394;42.692;23.314;2023-06-10T13:39:43;7.93;;;4.20;;
24277;SDS011;12394;42.692;23.314;2023-06-10T13:42:08;13.07;;;6.13;;
24277;SDS011;12394;42.692;23.314;2023-06-10T13:44:34;5.37;;;4.63;;
24277;SDS011;12394;42.692;23.314;2023-06-10T13:47:01;5.90;;;4.40;;
24277;SDS011;12394;42.692;23.314;2023-06-10T13:49:30;9.00;;;4.30;;
24277;SDS011;12394;42.692;23.314;2023-06-10T13:51:55;7.13;;;5.00;;
24277;SDS011;12394;42.692;23.314;2023-06-10T13:54:21;8.70;;;5.33;;
24277;SDS011;12394;42.692;23.314;2023-06-10T13:57:07;6.33;;;5.20;;
24277;SDS011;12394;42.692;23.314;2023-06-10T13:59:35;6.80;;;4.57;;
24277;SDS011;12394;42.692;23.314;2023-06-10T14:02:04;6.97;;;5.30;;
24277;SDS011;12394;42.692;23.314;2023-06-10T14:04:31;9.13;;;5.13;;
24277;SDS011;12394;42.692;23.314;2023-06-10T14:06:57;8.53;;;4.83;;
24277;SDS011;12394;42.692;23.314;2023-06-10T14:09:22;11.53;;;6.03;;
24277;SDS011;12394;42.692;23.314;2023-06-10T14:11:51;8.57;;;5.03;;
24277;SDS011;12394;42.692;23.314;2023-06-10T14:14:17;7.90;;;5.13;;
24277;SDS011;12394;42.692;23.314;2023-06-10T14:16:42;8.90;;;4.70;;
24277;SDS011;12394;42.692;23.314;2023-06-10T14:19:07;7.83;;;4.73;;
24277;SDS011;12394;42.692;23.314;2023-06-10T14:21:42;11.57;;;5.87;;
24277;SDS011;12394;42.692;23.314;2023-06-10T14:24:07;6.93;;;4.77;;
24277;SDS011;12394;42.692;23.314;2023-06-10T14:26:33;7.37;;;5.00;;
24277;SDS011;12394;42.692;23.314;2023-06-10T14:28:58;5.10;;;3.90;;
24277;SDS011;12394;42.692;23.314;2023-06-10T14:31:23;8.30;;;4.53;;
24277;SDS011;12394;42.692;23.314;2023-06-10T14:33:49;5.80;;;4.30;;
24277;SDS011;12394;42.692;23.314;2023-06-10T14:36:14;8.87;;;4.27;;
24277;SDS011;12394;42.692;23.314;2023-06-10T14:38:40;10.33;;;4.50;;
24277;SDS011;12394;42.692;23.314;2023-06-10T14:41:05;6.40;;;4.73;;
24277;SDS011;12394;42.692;23.314;2023-06-10T14:43:30;4.80;;;4.30;;
24277;SDS011;12394;42.692;23.314;2023-06-10T14:45:56;4.70;;;4.30;;
24277;SDS011;12394;42.692;23.314;2023-06-10T14:48:22;7.83;;;4.50;;
24277;SDS011;12394;42.692;23.314;2023-06-10T14:50:47;6.63;;;4.63;;
24277;SDS011;12394;42.692;23.314;2023-06-10T14:53:16;6.73;;;4.20;;
24277;SDS011;12394;42.692;23.314;2023-06-10T14:55:42;6.53;;;4.17;;
24277;SDS011;12394;42.692;23.314;2023-06-10T14:58:07;14.03;;;4.40;;
24277;SDS011;12394;42.692;23.314;2023-06-10T15:00:33;4.73;;;4.00;;
24277;SDS011;12394;42.692;23.314;2023-06-10T15:02:58;4.63;;;4.13;;
24277;SDS011;12394;42.692;23.314;2023-06-10T15:05:24;9.23;;;4.70;;